AirNav   SIMCOM
 
 928 users online  

UT41 Glenmar Ranch Airport
Cedar Fort, Utah, USA

GOING TO CEDAR FORT?


FAA INFORMATION EFFECTIVE 09 NOVEMBER 2017

Location

FAA Identifier: UT41
Lat/Long: 40-20-21.8000N / 111-59-55.7740W
40-20.363333N / 111-59.929567W
40.3393889 / -111.9988261
(estimated)
Elevation: 5030 ft. / 1533 m (estimated)
Variation: 14E (1990)
From city: 6 miles E of CEDAR FORT, UT
Time zone: UTC -7 (UTC -6 during Daylight Saving Time)
Zip code: 84043

Airport Operations

Airport use: Private use. Permission required prior to landing
Activation date: 02/1994
Control tower: no
ARTCC: SALT LAKE CITY CENTER
FSS: CEDAR CITY FLIGHT SERVICE STATION
Attendance: UNATNDD
Wind indicator: yes
Segmented circle: no

Airport Communications

WX AWOS-3PT at PVU (15 nm SE): 135.175 (801-373-9782)
WX AWOS-3 at U42 (17 nm N): 134.425 (801-562-0271)

Nearby radio navigation aids

VOR radial/distance  VOR name  Freq  Var
FFUr309/4.7FAIRFIELD VORTAC116.6016E
PVUr285/14.7PROVO VOR/DME108.4015E
TCHr165/30.7WASATCH VORTAC116.8016E

Airport Services

Runway Information

Runway 15/33

Dimensions: 2600 x 60 ft. / 792 x 18 m
Surface: dirt
RUNWAY 15  RUNWAY 33
Traffic pattern: leftleft

Airport Ownership and Management from official FAA records

Ownership: Privately-owned
Owner: GLENN & MARIANNE SMITH
PO BOX 290104
PHELAN, CA 92329-0104
Phone 619-868-3839
Manager: GLENN SMITH
PO BOX 290104
PHELAN, CA 92329-0104
Phone 619-868-3839

Airport Operational Statistics

Aircraft based on the field: 3
Single engine airplanes: 3
    

Instrument Procedures

There are no published instrument procedures at UT41.

Some nearby airports with instrument procedures:

KPVU - Provo Municipal Airport (15 nm SE)
U42 - South Valley Regional Airport (17 nm N)
KTVY - Bolinder Field-Tooele Valley Airport (23 nm NW)
KSLC - Salt Lake City International Airport (27 nm N)
KHCR - Heber City Municipal Airport - Russ McDonald Field (27 nm E)
 
Loc | Ops | Rwys | IFR | FBO | Links
Com | Nav | Svcs | Stats | Notes

TAC Air
 
Area around UT41 (Glenmar Ranch Airport)
 
Road maps at: MapQuest Bing Google
 
Aerial photo
No photo
 
Sectional chart

 
Airport distance calculator
Flying to Glenmar Ranch Airport? Find the distance to fly.

From to UT41

Sunrise and sunset
Times for 19-Nov-2017
 Local
(UTC-7)
 Zulu
(UTC)
Morning civil twilight06:5013:50
Sunrise07:2014:20
Sunset17:0700:07
Evening civil twilight17:3700:37

Current date and time
Zulu (UTC)  19-Nov-2017 22:19:21
Local (UTC-7)  19-Nov-2017 15:19:21
 
METAR
KPVU 
15nm SE 
192156Z 29003KT 10SM CLR 07/M05 A3013 RMK AO2 SLP215 T00671050
KU42 
17nm N 
192155Z AUTO 21003KT 10SM CLR 08/M04 A3013 RMK AO1 T00811044
KTVY 
23nm NW 
192155Z AUTO 36007KT 10SM CLR 05/M02 A3015 RMK AO2
KSLC 
27nm N 
192154Z 35005KT 10SM FEW250 09/M04 A3013 RMK AO2 SLP200 T00941044 $
KHCR 
27nm E 
192155Z AUTO 00000KT 10SM CLR 07/M07 A3010 RMK AO2
TAF
KPVU 
15nm SE 
191728Z 1918/2018 VRB05KT P6SM SCT200 FM201400 VRB05KT P6SM SCT080 BKN120
NOTAMs
Click for the latest NOTAMs
NOTAMs are issued by the DoD/FAA and will open in a separate window not controlled by AirNav.

 

 
 

Would you like to see your business listed on this page?

 If your business provides an interesting product or service to pilots, flight crews, aircraft, or users of the Glenmar Ranch Airport, you should consider listing it here.  To start the listing process, click on the button below
 
Add a business
 

Other Pages about Glenmar Ranch Airport

Update a link
 
Copyright © AirNav, LLC. All rights reserved. Privacy Policy  Contact